sensor_id;sensor_type;location;lat;lon;timestamp;pressure;altitude;pressure_sealevel;temperature;humidity
3812;BME280;1921;49.368;11.068;2023-05-24T00:00:41;97926.72;;;13.38;69.67
3812;BME280;1921;49.368;11.068;2023-05-24T00:03:07;97964.78;;;13.77;68.72
3812;BME280;1921;49.368;11.068;2023-05-24T00:05:33;97957.53;;;13.58;69.39
3812;BME280;1921;49.368;11.068;2023-05-24T00:08:03;97884.28;;;13.07;68.70
3812;BME280;1921;49.368;11.068;2023-05-24T00:10:28;97910.34;;;13.30;69.52
3812;BME280;1921;49.368;11.068;2023-05-24T00:12:54;97952.84;;;13.53;69.07
3812;BME280;1921;49.368;11.068;2023-05-24T00:15:20;97912.31;;;13.28;70.19
3812;BME280;1921;49.368;11.068;2023-05-24T00:17:46;97941.56;;;13.53;69.63
3812;BME280;1921;49.368;11.068;2023-05-24T00:20:12;97954.91;;;13.58;69.71
3812;BME280;1921;49.368;11.068;2023-05-24T00:22:39;97911.75;;;13.32;69.81
3812;BME280;1921;49.368;11.068;2023-05-24T00:25:05;97908.25;;;13.25;69.65
3812;BME280;1921;49.368;11.068;2023-05-24T00:27:31;97937.59;;;13.35;69.90
3812;BME280;1921;49.368;11.068;2023-05-24T00:29:57;97896.03;;;12.96;69.61
3812;BME280;1921;49.368;11.068;2023-05-24T00:32:23;97882.41;;;13.01;70.15
3812;BME280;1921;49.368;11.068;2023-05-24T00:34:49;97930.66;;;13.28;70.20
3812;BME280;1921;49.368;11.068;2023-05-24T00:37:15;97909.13;;;12.96;70.47
3812;BME280;1921;49.368;11.068;2023-05-24T00:39:42;97924.41;;;12.92;70.99
3812;BME280;1921;49.368;11.068;2023-05-24T00:42:08;97893.56;;;12.73;71.61
3812;BME280;1921;49.368;11.068;2023-05-24T00:44:34;97888.63;;;12.63;71.19
3812;BME280;1921;49.368;11.068;2023-05-24T00:46:59;97905.91;;;12.79;72.76
3812;BME280;1921;49.368;11.068;2023-05-24T00:49:26;97905.06;;;12.57;72.42
3812;BME280;1921;49.368;11.068;2023-05-24T00:51:52;97940.66;;;12.73;73.49
3812;BME280;1921;49.368;11.068;2023-05-24T00:54:19;97906.63;;;12.37;73.91
3812;BME280;1921;49.368;11.068;2023-05-24T00:56:45;97847.91;;;11.95;74.30
3812;BME280;1921;49.368;11.068;2023-05-24T00:59:13;97872.34;;;12.02;75.17
3812;BME280;1921;49.368;11.068;2023-05-24T01:01:38;97866.22;;;12.10;74.70
3812;BME280;1921;49.368;11.068;2023-05-24T01:04:06;97882.25;;;12.22;75.42
3812;BME280;1921;49.368;11.068;2023-05-24T01:06:55;97917.09;;;12.37;74.97
3812;BME280;1921;49.368;11.068;2023-05-24T01:18:19;97883.44;;;12.04;76.29
3812;BME280;1921;49.368;11.068;2023-05-24T01:24:28;97869.75;;;11.79;76.54
3812;BME280;1921;49.368;11.068;2023-05-24T01:27:13;97843.22;;;11.38;77.92
3812;BME280;1921;49.368;11.068;2023-05-24T01:29:39;97928.03;;;11.65;78.94
3812;BME280;1921;49.368;11.068;2023-05-24T01:32:06;97869.22;;;11.31;79.35
3812;BME280;1921;49.368;11.068;2023-05-24T01:34:32;97870.78;;;11.41;78.73
3812;BME280;1921;49.368;11.068;2023-05-24T01:36:57;97908.16;;;11.79;77.71
3812;BME280;1921;49.368;11.068;2023-05-24T01:39:27;97869.13;;;11.63;78.00
3812;BME280;1921;49.368;11.068;2023-05-24T01:45:47;97934.81;;;11.74;79.00
3812;BME280;1921;49.368;11.068;2023-05-24T01:51:18;97926.63;;;11.77;79.42
3812;BME280;1921;49.368;11.068;2023-05-24T01:53:47;97923.19;;;11.77;78.94
3812;BME280;1921;49.368;11.068;2023-05-24T01:56:16;97870.16;;;11.53;78.04
3812;BME280;1921;49.368;11.068;2023-05-24T01:58:45;97930.56;;;11.96;77.50
3812;BME280;1921;49.368;11.068;2023-05-24T02:01:12;97888.91;;;11.57;78.13
3812;BME280;1921;49.368;11.068;2023-05-24T02:03:39;97889.72;;;11.57;78.65
3812;BME280;1921;49.368;11.068;2023-05-24T02:06:05;97868.97;;;11.41;78.44
3812;BME280;1921;49.368;11.068;2023-05-24T02:08:32;97872.94;;;11.37;78.36
3812;BME280;1921;49.368;11.068;2023-05-24T02:10:58;97894.84;;;11.51;78.60
3812;BME280;1921;49.368;11.068;2023-05-24T02:13:24;97916.56;;;11.51;78.99
3812;BME280;1921;49.368;11.068;2023-05-24T02:15:49;97915.38;;;11.08;78.42
3812;BME280;1921;49.368;11.068;2023-05-24T02:18:18;97894.34;;;10.78;77.84
3812;BME280;1921;49.368;11.068;2023-05-24T02:20:44;97891.53;;;10.88;77.82
3812;BME280;1921;49.368;11.068;2023-05-24T02:23:09;97892.25;;;10.74;77.43
3812;BME280;1921;49.368;11.068;2023-05-24T02:25:35;97845.53;;;10.33;75.55
3812;BME280;1921;49.368;11.068;2023-05-24T02:28:01;97918.63;;;10.79;75.19
3812;BME280;1921;49.368;11.068;2023-05-24T02:30:27;97914.38;;;10.47;74.17
3812;BME280;1921;49.368;11.068;2023-05-24T02:32:52;97901.25;;;10.32;74.79
3812;BME280;1921;49.368;11.068;2023-05-24T02:35:19;97865.91;;;10.21;73.42
3812;BME280;1921;49.368;11.068;2023-05-24T02:37:46;97927.56;;;10.54;73.33
3812;BME280;1921;49.368;11.068;2023-05-24T02:40:12;97940.38;;;10.71;72.53
3812;BME280;1921;49.368;11.068;2023-05-24T02:42:37;97928.44;;;10.38;73.45
3812;BME280;1921;49.368;11.068;2023-05-24T02:45:04;97920.63;;;10.38;73.04
3812;BME280;1921;49.368;11.068;2023-05-24T02:47:30;97915.69;;;10.43;72.28
3812;BME280;1921;49.368;11.068;2023-05-24T02:49:55;97900.75;;;10.29;72.66
3812;BME280;1921;49.368;11.068;2023-05-24T02:52:21;97895.38;;;10.22;72.56
3812;BME280;1921;49.368;11.068;2023-05-24T02:54:48;97928.53;;;10.52;72.63
3812;BME280;1921;49.368;11.068;2023-05-24T02:57:14;97900.13;;;10.27;72.68
3812;BME280;1921;49.368;11.068;2023-05-24T02:59:41;97911.09;;;10.53;71.78
3812;BME280;1921;49.368;11.068;2023-05-24T03:02:08;97903.19;;;10.22;71.79
3812;BME280;1921;49.368;11.068;2023-05-24T03:04:33;97872.00;;;9.97;73.09
3812;BME280;1921;49.368;11.068;2023-05-24T03:06:59;97912.66;;;10.15;72.78
3812;BME280;1921;49.368;11.068;2023-05-24T03:09:25;97881.84;;;10.18;72.49
3812;BME280;1921;49.368;11.068;2023-05-24T03:11:52;97910.47;;;10.43;71.14
3812;BME280;1921;49.368;11.068;2023-05-24T03:14:19;97917.03;;;10.31;71.11
3812;BME280;1921;49.368;11.068;2023-05-24T03:16:47;97892.63;;;10.15;71.64
3812;BME280;1921;49.368;11.068;2023-05-24T03:19:14;97897.16;;;10.21;71.50
3812;BME280;1921;49.368;11.068;2023-05-24T03:21:42;97948.09;;;10.48;71.09
3812;BME280;1921;49.368;11.068;2023-05-24T03:24:08;97919.09;;;10.51;71.15
3812;BME280;1921;49.368;11.068;2023-05-24T03:26:34;97898.94;;;10.37;70.22
3812;BME280;1921;49.368;11.068;2023-05-24T03:29:00;97941.41;;;10.62;70.32
3812;BME280;1921;49.368;11.068;2023-05-24T03:31:26;97952.34;;;10.49;71.09
3812;BME280;1921;49.368;11.068;2023-05-24T03:33:51;97869.34;;;10.06;70.88
3812;BME280;1921;49.368;11.068;2023-05-24T03:36:18;97922.25;;;10.39;70.04
3812;BME280;1921;49.368;11.068;2023-05-24T03:38:45;97903.19;;;10.30;70.43
3812;BME280;1921;49.368;11.068;2023-05-24T03:41:11;97957.22;;;10.52;70.32
3812;BME280;1921;49.368;11.068;2023-05-24T03:43:37;97919.19;;;10.19;71.30
3812;BME280;1921;49.368;11.068;2023-05-24T03:46:03;97905.66;;;10.32;71.20
3812;BME280;1921;49.368;11.068;2023-05-24T03:48:29;97879.13;;;10.04;70.87
3812;BME280;1921;49.368;11.068;2023-05-24T03:50:54;97884.13;;;10.21;71.33
3812;BME280;1921;49.368;11.068;2023-05-24T03:53:20;97921.41;;;10.46;70.38
3812;BME280;1921;49.368;11.068;2023-05-24T03:55:46;97924.44;;;10.58;69.55
3812;BME280;1921;49.368;11.068;2023-05-24T03:58:12;97927.09;;;10.42;71.20
3812;BME280;1921;49.368;11.068;2023-05-24T04:00:37;97961.78;;;10.59;71.67
3812;BME280;1921;49.368;11.068;2023-05-24T04:03:03;97917.75;;;10.64;70.83
3812;BME280;1921;49.368;11.068;2023-05-24T04:05:32;97888.94;;;10.49;69.35
3812;BME280;1921;49.368;11.068;2023-05-24T04:07:57;97940.13;;;10.89;69.11
3812;BME280;1921;49.368;11.068;2023-05-24T04:10:23;97942.97;;;11.02;68.24
3812;BME280;1921;49.368;11.068;2023-05-24T04:12:49;97914.50;;;10.54;68.93
3812;BME280;1921;49.368;11.068;2023-05-24T04:15:15;97914.78;;;10.28;70.77
3812;BME280;1921;49.368;11.068;2023-05-24T04:17:44;97917.34;;;10.36;70.90
3812;BME280;1921;49.368;11.068;2023-05-24T04:20:11;97942.22;;;10.63;70.69
3812;BME280;1921;49.368;11.068;2023-05-24T04:22:37;97869.97;;;10.16;71.16
3812;BME280;1921;49.368;11.068;2023-05-24T04:25:04;97926.25;;;10.58;70.76
3812;BME280;1921;49.368;11.068;2023-05-24T04:27:30;97900.66;;;10.53;70.28
3812;BME280;1921;49.368;11.068;2023-05-24T04:29:57;97915.19;;;10.47;70.73
3812;BME280;1921;49.368;11.068;2023-05-24T04:32:24;97962.47;;;10.84;70.12
3812;BME280;1921;49.368;11.068;2023-05-24T04:34:50;97920.94;;;10.74;70.32
3812;BME280;1921;49.368;11.068;2023-05-24T04:37:17;97916.75;;;10.96;69.97
3812;BME280;1921;49.368;11.068;2023-05-24T04:39:44;97957.63;;;11.35;69.43
3812;BME280;1921;49.368;11.068;2023-05-24T04:42:12;97981.19;;;11.26;69.36
3812;BME280;1921;49.368;11.068;2023-05-24T04:44:39;97911.84;;;10.70;69.55
3812;BME280;1921;49.368;11.068;2023-05-24T04:47:06;97965.97;;;11.30;69.51
3812;BME280;1921;49.368;11.068;2023-05-24T04:49:32;97920.88;;;10.90;70.72
3812;BME280;1921;49.368;11.068;2023-05-24T04:51:58;97956.19;;;11.32;69.61
3812;BME280;1921;49.368;11.068;2023-05-24T04:54:23;97905.88;;;11.15;68.72
3812;BME280;1921;49.368;11.068;2023-05-24T04:56:49;97935.59;;;11.37;67.78
3812;BME280;1921;49.368;11.068;2023-05-24T04:59:15;97870.94;;;10.31;69.63
3812;BME280;1921;49.368;11.068;2023-05-24T05:01:41;97943.63;;;11.04;68.20
3812;BME280;1921;49.368;11.068;2023-05-24T05:04:06;97910.22;;;11.00;67.67
3812;BME280;1921;49.368;11.068;2023-05-24T05:06:32;97945.53;;;10.79;68.64
3812;BME280;1921;49.368;11.068;2023-05-24T05:09:06;97922.75;;;10.73;68.54
3812;BME280;1921;49.368;11.068;2023-05-24T05:11:37;97940.38;;;10.71;70.32
3812;BME280;1921;49.368;11.068;2023-05-24T05:14:03;97921.00;;;10.66;70.29
3812;BME280;1921;49.368;11.068;2023-05-24T05:16:29;97931.97;;;10.53;70.08
3812;BME280;1921;49.368;11.068;2023-05-24T05:18:55;97959.88;;;10.84;69.39
3812;BME280;1921;49.368;11.068;2023-05-24T05:21:21;97932.81;;;10.45;69.69
3812;BME280;1921;49.368;11.068;2023-05-24T05:23:46;97812.00;;;9.66;69.90
3812;BME280;1921;49.368;11.068;2023-05-24T05:26:12;97932.34;;;10.81;68.79
3812;BME280;1921;49.368;11.068;2023-05-24T05:28:38;97908.25;;;10.32;70.29
3812;BME280;1921;49.368;11.068;2023-05-24T05:31:03;97935.00;;;10.65;69.89
3812;BME280;1921;49.368;11.068;2023-05-24T05:33:32;97926.94;;;10.83;69.02
3812;BME280;1921;49.368;11.068;2023-05-24T05:35:59;97992.09;;;11.30;68.61
3812;BME280;1921;49.368;11.068;2023-05-24T05:38:25;97951.47;;;11.27;68.75
3812;BME280;1921;49.368;11.068;2023-05-24T05:40:51;97951.38;;;11.21;68.29
3812;BME280;1921;49.368;11.068;2023-05-24T05:43:16;97929.31;;;11.23;67.11
3812;BME280;1921;49.368;11.068;2023-05-24T05:45:42;97947.66;;;11.61;66.51
3812;BME280;1921;49.368;11.068;2023-05-24T05:48:08;97911.50;;;11.50;66.08
3812;BME280;1921;49.368;11.068;2023-05-24T05:50:33;97819.13;;;11.13;65.03
3812;BME280;1921;49.368;11.068;2023-05-24T05:52:59;97926.22;;;11.89;65.81
3812;BME280;1921;49.368;11.068;2023-05-24T05:55:25;97940.25;;;11.50;67.65
3812;BME280;1921;49.368;11.068;2023-05-24T05:57:51;97935.53;;;11.45;68.40
3812;BME280;1921;49.368;11.068;2023-05-24T06:00:17;97949.31;;;11.77;66.32
3812;BME280;1921;49.368;11.068;2023-05-24T06:02:43;97911.97;;;11.08;68.20
3812;BME280;1921;49.368;11.068;2023-05-24T06:05:09;97991.09;;;11.85;68.17
3812;BME280;1921;49.368;11.068;2023-05-24T06:07:34;97955.94;;;11.42;68.76
3812;BME280;1921;49.368;11.068;2023-05-24T06:10:02;97960.63;;;11.00;71.73
3812;BME280;1921;49.368;11.068;2023-05-24T06:12:28;97950.84;;;10.55;71.13
3812;BME280;1921;49.368;11.068;2023-05-24T06:14:53;97946.19;;;10.82;70.17
3812;BME280;1921;49.368;11.068;2023-05-24T06:17:22;97963.22;;;11.00;70.08
3812;BME280;1921;49.368;11.068;2023-05-24T06:19:50;97982.44;;;11.39;67.99
3812;BME280;1921;49.368;11.068;2023-05-24T06:22:19;97904.34;;;10.75;68.26
3812;BME280;1921;49.368;11.068;2023-05-24T06:24:45;97979.41;;;10.96;70.46
3812;BME280;1921;49.368;11.068;2023-05-24T06:27:11;97962.03;;;10.72;70.78
3812;BME280;1921;49.368;11.068;2023-05-24T06:29:37;97998.06;;;10.76;70.39
3812;BME280;1921;49.368;11.068;2023-05-24T06:32:03;97939.34;;;10.41;71.39
3812;BME280;1921;49.368;11.068;2023-05-24T06:34:29;98004.56;;;11.20;69.68
3812;BME280;1921;49.368;11.068;2023-05-24T06:36:55;97961.03;;;11.43;66.44
3812;BME280;1921;49.368;11.068;2023-05-24T06:39:20;97968.00;;;11.43;65.92
3812;BME280;1921;49.368;11.068;2023-05-24T06:41:46;97976.25;;;11.77;65.58
3812;BME280;1921;49.368;11.068;2023-05-24T06:44:15;98003.56;;;11.75;66.60
3812;BME280;1921;49.368;11.068;2023-05-24T06:46:41;97993.91;;;11.98;64.74
3812;BME280;1921;49.368;11.068;2023-05-24T06:49:07;97984.63;;;12.48;61.81
3812;BME280;1921;49.368;11.068;2023-05-24T06:51:33;97974.91;;;12.57;61.50
3812;BME280;1921;49.368;11.068;2023-05-24T06:53:58;98005.56;;;12.63;60.94
3812;BME280;1921;49.368;11.068;2023-05-24T06:56:24;97983.34;;;11.92;64.06
3812;BME280;1921;49.368;11.068;2023-05-24T06:58:51;97977.63;;;12.11;62.23
3812;BME280;1921;49.368;11.068;2023-05-24T07:01:17;98000.03;;;11.14;66.73
3812;BME280;1921;49.368;11.068;2023-05-24T07:03:43;98014.63;;;11.31;67.55
3812;BME280;1921;49.368;11.068;2023-05-24T07:06:09;97988.88;;;11.74;66.86
3812;BME280;1921;49.368;11.068;2023-05-24T07:08:41;98010.84;;;12.25;63.01
3812;BME280;1921;49.368;11.068;2023-05-24T07:11:07;97997.50;;;12.35;61.94
3812;BME280;1921;49.368;11.068;2023-05-24T07:13:34;98017.47;;;12.51;62.25
3812;BME280;1921;49.368;11.068;2023-05-24T07:15:59;97995.00;;;12.56;60.16
3812;BME280;1921;49.368;11.068;2023-05-24T07:18:25;97974.72;;;12.44;61.83
3812;BME280;1921;49.368;11.068;2023-05-24T07:20:51;98000.41;;;12.99;60.13
3812;BME280;1921;49.368;11.068;2023-05-24T07:23:17;98021.84;;;13.39;57.88
3812;BME280;1921;49.368;11.068;2023-05-24T07:25:42;97997.09;;;12.61;60.65
3812;BME280;1921;49.368;11.068;2023-05-24T07:28:08;97996.41;;;11.46;63.55
3812;BME280;1921;49.368;11.068;2023-05-24T07:30:35;97989.66;;;11.82;63.37
3812;BME280;1921;49.368;11.068;2023-05-24T07:33:03;98034.88;;;12.06;63.11
3812;BME280;1921;49.368;11.068;2023-05-24T07:35:28;98046.19;;;12.88;60.57
3812;BME280;1921;49.368;11.068;2023-05-24T07:37:55;98003.50;;;12.06;61.50
3812;BME280;1921;49.368;11.068;2023-05-24T07:40:22;97961.34;;;12.24;59.84
3812;BME280;1921;49.368;11.068;2023-05-24T07:42:47;97992.09;;;12.22;60.12
3812;BME280;1921;49.368;11.068;2023-05-24T07:45:13;97967.41;;;12.39;60.10
3812;BME280;1921;49.368;11.068;2023-05-24T07:47:39;97994.47;;;12.76;59.12
3812;BME280;1921;49.368;11.068;2023-05-24T07:50:05;98033.84;;;11.61;64.46
3812;BME280;1921;49.368;11.068;2023-05-24T07:52:31;98002.69;;;10.97;68.11
3812;BME280;1921;49.368;11.068;2023-05-24T07:54:57;97967.63;;;11.00;65.74
3812;BME280;1921;49.368;11.068;2023-05-24T07:57:23;97993.81;;;11.15;65.03
3812;BME280;1921;49.368;11.068;2023-05-24T07:59:49;97997.31;;;11.30;65.11
3812;BME280;1921;49.368;11.068;2023-05-24T08:02:15;98009.34;;;11.93;62.85
3812;BME280;1921;49.368;11.068;2023-05-24T08:04:41;97995.00;;;11.89;62.22
3812;BME280;1921;49.368;11.068;2023-05-24T08:07:08;97964.53;;;11.73;62.23
3812;BME280;1921;49.368;11.068;2023-05-24T08:09:34;98032.84;;;11.39;64.63
3812;BME280;1921;49.368;11.068;2023-05-24T08:12:04;98012.78;;;11.40;65.97
3812;BME280;1921;49.368;11.068;2023-05-24T08:14:30;97962.94;;;10.95;64.46
3812;BME280;1921;49.368;11.068;2023-05-24T08:16:56;98016.56;;;10.98;66.98
3812;BME280;1921;49.368;11.068;2023-05-24T08:19:22;98008.47;;;10.85;66.95
3812;BME280;1921;49.368;11.068;2023-05-24T08:21:48;98005.13;;;11.07;65.18
3812;BME280;1921;49.368;11.068;2023-05-24T08:24:14;98032.63;;;10.78;66.40
3812;BME280;1921;49.368;11.068;2023-05-24T08:26:40;98007.09;;;10.58;67.94
3812;BME280;1921;49.368;11.068;2023-05-24T08:29:08;98019.78;;;10.69;66.82
3812;BME280;1921;49.368;11.068;2023-05-24T08:31:33;97981.72;;;10.35;68.04
3812;BME280;1921;49.368;11.068;2023-05-24T08:34:00;97995.53;;;10.91;66.11
3812;BME280;1921;49.368;11.068;2023-05-24T08:36:26;97938.38;;;11.13;63.20
3812;BME280;1921;49.368;11.068;2023-05-24T08:38:51;98031.66;;;11.81;63.76
3812;BME280;1921;49.368;11.068;2023-05-24T08:41:17;98040.06;;;12.29;62.30
3812;BME280;1921;49.368;11.068;2023-05-24T08:43:43;98069.84;;;12.80;60.42
3812;BME280;1921;49.368;11.068;2023-05-24T08:46:12;98037.28;;;12.30;61.68
3812;BME280;1921;49.368;11.068;2023-05-24T08:48:46;98019.84;;;12.75;60.32
3812;BME280;1921;49.368;11.068;2023-05-24T08:51:16;98030.00;;;13.14;57.28
3812;BME280;1921;49.368;11.068;2023-05-24T08:53:43;98035.25;;;12.85;57.72
3812;BME280;1921;49.368;11.068;2023-05-24T08:56:17;98024.69;;;12.78;59.71
3812;BME280;1921;49.368;11.068;2023-05-24T08:58:44;98012.50;;;13.30;58.86
3812;BME280;1921;49.368;11.068;2023-05-24T09:01:13;98013.56;;;13.35;56.13
3812;BME280;1921;49.368;11.068;2023-05-24T09:03:41;98035.56;;;13.98;55.32
3812;BME280;1921;49.368;11.068;2023-05-24T09:06:08;98022.66;;;14.25;54.20
3812;BME280;1921;49.368;11.068;2023-05-24T09:08:36;98017.75;;;14.43;53.25
3812;BME280;1921;49.368;11.068;2023-05-24T09:11:04;98053.72;;;14.77;52.19
3812;BME280;1921;49.368;11.068;2023-05-24T09:13:32;98045.50;;;14.87;53.40
3812;BME280;1921;49.368;11.068;2023-05-24T09:15:59;98081.09;;;14.96;51.97
3812;BME280;1921;49.368;11.068;2023-05-24T09:18:26;98019.22;;;14.24;53.01
3812;BME280;1921;49.368;11.068;2023-05-24T09:20:51;98030.94;;;12.92;56.59
3812;BME280;1921;49.368;11.068;2023-05-24T09:23:17;98036.69;;;13.32;56.05
3812;BME280;1921;49.368;11.068;2023-05-24T09:25:44;98079.13;;;13.99;54.63
3812;BME280;1921;49.368;11.068;2023-05-24T09:28:17;98015.66;;;13.61;54.12
3812;BME280;1921;49.368;11.068;2023-05-24T09:30:44;98046.22;;;13.97;54.14
3812;BME280;1921;49.368;11.068;2023-05-24T09:33:10;97949.03;;;13.34;53.73
3812;BME280;1921;49.368;11.068;2023-05-24T09:35:41;98030.03;;;13.51;54.80
3812;BME280;1921;49.368;11.068;2023-05-24T09:38:16;98042.72;;;13.68;55.27
3812;BME280;1921;49.368;11.068;2023-05-24T09:40:43;98000.91;;;13.09;55.11
3812;BME280;1921;49.368;11.068;2023-05-24T09:43:09;98040.38;;;13.23;54.82
3812;BME280;1921;49.368;11.068;2023-05-24T09:45:45;98024.25;;;12.75;56.24
3812;BME280;1921;49.368;11.068;2023-05-24T09:48:15;98042.31;;;12.99;55.65
3812;BME280;1921;49.368;11.068;2023-05-24T09:50:42;98056.09;;;13.23;55.08
3812;BME280;1921;49.368;11.068;2023-05-24T09:53:12;98078.56;;;13.46;54.93
3812;BME280;1921;49.368;11.068;2023-05-24T09:55:40;98050.50;;;12.96;55.37
3812;BME280;1921;49.368;11.068;2023-05-24T09:58:09;98093.53;;;13.53;55.45
3812;BME280;1921;49.368;11.068;2023-05-24T10:00:40;98056.03;;;13.31;55.16
3812;BME280;1921;49.368;11.068;2023-05-24T10:03:10;98092.00;;;13.94;54.89
3812;BME280;1921;49.368;11.068;2023-05-24T10:05:41;98056.19;;;14.30;53.27
3812;BME280;1921;49.368;11.068;2023-05-24T10:08:07;98063.47;;;14.06;53.09
3812;BME280;1921;49.368;11.068;2023-05-24T10:10:35;98061.41;;;14.23;53.31
3812;BME280;1921;49.368;11.068;2023-05-24T10:13:01;98064.78;;;14.66;53.65
3812;BME280;1921;49.368;11.068;2023-05-24T10:15:27;97933.16;;;13.57;52.21
3812;BME280;1921;49.368;11.068;2023-05-24T10:17:55;98020.53;;;14.63;51.20
3812;BME280;1921;49.368;11.068;2023-05-24T10:20:22;98086.06;;;15.54;49.16
3812;BME280;1921;49.368;11.068;2023-05-24T10:22:54;98041.06;;;15.29;49.09
3812;BME280;1921;49.368;11.068;2023-05-24T10:25:23;98003.78;;;15.05;50.20
3812;BME280;1921;49.368;11.068;2023-05-24T10:27:57;98000.97;;;13.88;52.02
3812;BME280;1921;49.368;11.068;2023-05-24T10:32:56;98013.97;;;14.24;52.99
3812;BME280;1921;49.368;11.068;2023-05-24T10:35:24;98037.94;;;14.21;52.45
3812;BME280;1921;49.368;11.068;2023-05-24T10:37:52;98028.78;;;14.95;50.68
3812;BME280;1921;49.368;11.068;2023-05-24T10:40:21;98018.31;;;15.01;49.01
3812;BME280;1921;49.368;11.068;2023-05-24T10:42:50;98071.97;;;15.75;48.21
3812;BME280;1921;49.368;11.068;2023-05-24T10:45:33;98024.53;;;13.45;53.21
3812;BME280;1921;49.368;11.068;2023-05-24T10:50:38;98068.09;;;12.73;57.29
3812;BME280;1921;49.368;11.068;2023-05-24T10:56:00;98054.91;;;13.97;54.21
3812;BME280;1921;49.368;11.068;2023-05-24T11:00:57;98077.41;;;13.49;55.80
3812;BME280;1921;49.368;11.068;2023-05-24T11:03:23;98069.53;;;13.34;56.82
3812;BME280;1921;49.368;11.068;2023-05-24T11:05:52;98008.06;;;13.52;55.55
3812;BME280;1921;49.368;11.068;2023-05-24T11:08:30;98022.38;;;14.13;52.93
3812;BME280;1921;49.368;11.068;2023-05-24T11:11:13;98009.75;;;14.51;52.12
3812;BME280;1921;49.368;11.068;2023-05-24T11:13:41;98052.25;;;15.51;50.08
3812;BME280;1921;49.368;11.068;2023-05-24T11:16:07;98028.56;;;15.44;48.98
3812;BME280;1921;49.368;11.068;2023-05-24T11:18:33;98034.19;;;16.15;47.48
3812;BME280;1921;49.368;11.068;2023-05-24T11:21:07;98080.16;;;16.53;46.23
3812;BME280;1921;49.368;11.068;2023-05-24T11:23:33;98062.34;;;15.41;48.53
3812;BME280;1921;49.368;11.068;2023-05-24T11:26:00;98054.63;;;13.50;52.58
3812;BME280;1921;49.368;11.068;2023-05-24T11:28:27;98063.22;;;14.01;52.94
3812;BME280;1921;49.368;11.068;2023-05-24T11:30:53;98087.94;;;14.13;52.84
3812;BME280;1921;49.368;11.068;2023-05-24T11:33:23;98041.19;;;13.38;53.46
3812;BME280;1921;49.368;11.068;2023-05-24T11:35:53;98028.78;;;13.46;52.59
3812;BME280;1921;49.368;11.068;2023-05-24T11:38:20;98076.38;;;14.08;51.36
3812;BME280;1921;49.368;11.068;2023-05-24T11:40:48;98065.91;;;14.57;49.90
3812;BME280;1921;49.368;11.068;2023-05-24T11:43:17;97993.28;;;15.05;49.51
3812;BME280;1921;49.368;11.068;2023-05-24T11:45:47;97990.25;;;15.83;46.17
3812;BME280;1921;49.368;11.068;2023-05-24T11:48:14;97992.91;;;16.23;44.45
3812;BME280;1921;49.368;11.068;2023-05-24T11:50:45;98024.69;;;16.41;44.87
3812;BME280;1921;49.368;11.068;2023-05-24T11:53:18;98009.66;;;16.55;44.27
3812;BME280;1921;49.368;11.068;2023-05-24T11:55:45;98017.38;;;16.43;44.01
3812;BME280;1921;49.368;11.068;2023-05-24T11:58:26;98019.53;;;15.60;46.93
3812;BME280;1921;49.368;11.068;2023-05-24T12:00:54;98009.28;;;16.71;43.89
3812;BME280;1921;49.368;11.068;2023-05-24T12:03:20;97980.47;;;16.63;44.27
3812;BME280;1921;49.368;11.068;2023-05-24T12:05:46;98057.16;;;17.64;42.78
3812;BME280;1921;49.368;11.068;2023-05-24T12:08:12;98049.56;;;16.19;45.19
3812;BME280;1921;49.368;11.068;2023-05-24T12:10:41;98016.47;;;15.56;46.78
3812;BME280;1921;49.368;11.068;2023-05-24T12:13:40;98015.53;;;16.83;43.69
3812;BME280;1921;49.368;11.068;2023-05-24T12:16:06;98014.47;;;16.91;43.43
3812;BME280;1921;49.368;11.068;2023-05-24T12:18:32;98004.31;;;14.88;46.07
3812;BME280;1921;49.368;11.068;2023-05-24T12:20:58;98044.06;;;15.26;47.20
3812;BME280;1921;49.368;11.068;2023-05-24T12:23:25;98007.47;;;16.12;45.38
3812;BME280;1921;49.368;11.068;2023-05-24T12:26:00;98024.34;;;15.50;46.60
3812;BME280;1921;49.368;11.068;2023-05-24T12:28:31;98026.25;;;15.15;46.94
3812;BME280;1921;49.368;11.068;2023-05-24T12:30:56;97990.50;;;14.72;47.90
3812;BME280;1921;49.368;11.068;2023-05-24T12:33:22;98030.56;;;14.88;47.54
3812;BME280;1921;49.368;11.068;2023-05-24T12:35:48;97914.09;;;14.26;47.77
3812;BME280;1921;49.368;11.068;2023-05-24T12:38:14;98000.19;;;13.66;50.68
3812;BME280;1921;49.368;11.068;2023-05-24T12:40:50;97870.16;;;13.23;50.90
3812;BME280;1921;49.368;11.068;2023-05-24T12:43:20;97978.31;;;13.59;51.94
3812;BME280;1921;49.368;11.068;2023-05-24T12:45:46;97985.28;;;13.95;50.32
3812;BME280;1921;49.368;11.068;2023-05-24T12:48:12;98015.00;;;14.23;50.07
3812;BME280;1921;49.368;11.068;2023-05-24T12:50:38;97958.75;;;14.61;47.38
3812;BME280;1921;49.368;11.068;2023-05-24T12:53:04;97944.66;;;14.75;47.40
3812;BME280;1921;49.368;11.068;2023-05-24T12:55:30;98041.22;;;15.82;47.37
3812;BME280;1921;49.368;11.068;2023-05-24T12:57:56;97995.25;;;15.58;46.55
3812;BME280;1921;49.368;11.068;2023-05-24T13:00:27;97971.44;;;16.19;44.56
3812;BME280;1921;49.368;11.068;2023-05-24T13:02:53;97951.81;;;15.69;44.15
3812;BME280;1921;49.368;11.068;2023-05-24T13:05:23;97976.50;;;16.21;41.82
3812;BME280;1921;49.368;11.068;2023-05-24T13:07:50;97965.97;;;16.27;40.08
3812;BME280;1921;49.368;11.068;2023-05-24T13:10:16;97973.63;;;14.95;42.94
3812;BME280;1921;49.368;11.068;2023-05-24T13:12:42;97999.94;;;15.69;43.62
3812;BME280;1921;49.368;11.068;2023-05-24T13:15:08;97977.00;;;15.30;43.26
3812;BME280;1921;49.368;11.068;2023-05-24T13:17:34;97981.31;;;15.03;43.06
3812;BME280;1921;49.368;11.068;2023-05-24T13:20:04;97957.66;;;13.71;45.01
3812;BME280;1921;49.368;11.068;2023-05-24T13:22:34;97991.81;;;14.55;45.07
3812;BME280;1921;49.368;11.068;2023-05-24T13:25:02;97975.84;;;15.59;44.18
3812;BME280;1921;49.368;11.068;2023-05-24T13:27:28;98005.94;;;17.02;41.22
3812;BME280;1921;49.368;11.068;2023-05-24T13:29:54;97965.41;;;16.97;40.57
3812;BME280;1921;49.368;11.068;2023-05-24T13:32:20;97988.59;;;17.64;39.43
3812;BME280;1921;49.368;11.068;2023-05-24T13:34:46;97847.84;;;16.51;39.55
3812;BME280;1921;49.368;11.068;2023-05-24T13:37:12;97994.19;;;16.98;40.22
3812;BME280;1921;49.368;11.068;2023-05-24T13:39:38;97987.13;;;17.68;39.93